createdAt,value
2022-08-24T00:01:36.346Z,99366.41
2022-08-24T00:04:04.047Z,99372.66
2022-08-24T00:06:30.666Z,99374.56
2022-08-24T00:08:58.595Z,99371.38
2022-08-24T00:11:26.207Z,99379.72
2022-08-24T00:13:53.298Z,99383.47
2022-08-24T00:16:20.166Z,99382.56
2022-08-24T00:18:47.238Z,99385.84
2022-08-24T00:21:14.139Z,99384.16
2022-08-24T00:23:40.888Z,99384.72
2022-08-24T00:26:08.257Z,99388.88
2022-08-24T00:28:35.403Z,99388.16
2022-08-24T00:31:02.445Z,99387.34
2022-08-24T00:33:29.391Z,99393.13
2022-08-24T00:35:57.595Z,99388.50
2022-08-24T00:38:24.126Z,99399.63
2022-08-24T00:40:54.847Z,99397.28
2022-08-24T00:43:25.550Z,99402.81
2022-08-24T00:46:17.561Z,99396.09
2022-08-24T00:48:48.001Z,99399.47
2022-08-24T00:51:20.222Z,99401.16
2022-08-24T00:53:53.536Z,99399.09
2022-08-24T00:56:28.235Z,99393.47
2022-08-24T00:59:02.237Z,99397.38
2022-08-24T01:01:31.513Z,99399.47
2022-08-24T01:03:59.989Z,99401.53
2022-08-24T01:06:27.710Z,99400.31
2022-08-24T01:08:56.685Z,99394.69
2022-08-24T01:11:26.390Z,99390.56
2022-08-24T01:13:54.622Z,99391.88
2022-08-24T01:16:40.995Z,99393.75
2022-08-24T01:19:26.797Z,99390.19
2022-08-24T01:22:32.355Z,99389.94
2022-08-24T01:25:00.152Z,99391.97
2022-08-24T01:27:27.900Z,99385.25
2022-08-24T01:29:57.437Z,99387.69
2022-08-24T01:32:27.954Z,99390.94
2022-08-24T01:34:56.289Z,99392.53
2022-08-24T01:37:23.786Z,99396.69
2022-08-24T01:39:53.850Z,99399.38
2022-08-24T01:42:20.465Z,99399.47
2022-08-24T01:44:47.913Z,99400.84
2022-08-24T01:47:16.734Z,99402.75
2022-08-24T01:49:47.221Z,99402.09
2022-08-24T01:52:18.927Z,99396.66
2022-08-24T01:54:46.434Z,99398.44
2022-08-24T01:57:16.056Z,99399.44
2022-08-24T01:59:43.190Z,99410.78
2022-08-24T02:02:15.703Z,99412.66
2022-08-24T02:04:42.287Z,99415.53
2022-08-24T02:07:11.358Z,99406.00
2022-08-24T02:09:38.894Z,99413.19
2022-08-24T02:12:06.827Z,99413.38
2022-08-24T02:14:34.220Z,99419.09
2022-08-24T02:17:00.992Z,99425.22
2022-08-24T02:19:27.549Z,99434.91
2022-08-24T02:21:54.161Z,99433.41
2022-08-24T02:24:20.814Z,99425.28
2022-08-24T02:26:49.185Z,99427.31
2022-08-24T02:29:15.952Z,99433.41
2022-08-24T02:31:42.497Z,99431.72
2022-08-24T02:34:09.336Z,99423.50
2022-08-24T02:36:36.061Z,99430.50
2022-08-24T02:39:03.544Z,99433.56
2022-08-24T02:41:30.058Z,99435.97
2022-08-24T02:43:57.125Z,99438.19
2022-08-24T02:46:29.304Z,99427.53
2022-08-24T02:49:10.033Z,99435.38
2022-08-24T02:51:44.591Z,99422.06
2022-08-24T02:54:14.354Z,99427.91
2022-08-24T02:56:41.049Z,99428.09
2022-08-24T02:59:07.525Z,99432.72
2022-08-24T03:01:34.392Z,99426.97
2022-08-24T03:04:01.616Z,99425.47
2022-08-24T03:06:28.330Z,99425.47
2022-08-24T03:08:56.517Z,99432.22
2022-08-24T03:11:27.698Z,99438.66
2022-08-24T03:13:55.435Z,99444.41
2022-08-24T03:16:22.151Z,99441.06
2022-08-24T03:18:48.766Z,99440.41
2022-08-24T03:21:16.218Z,99440.41
2022-08-24T03:23:42.960Z,99441.09
2022-08-24T03:26:11.970Z,99441.44
2022-08-24T03:28:39.036Z,99434.34
2022-08-24T03:31:06.249Z,99437.41
2022-08-24T03:33:33.053Z,99442.03
2022-08-24T03:35:59.881Z,99438.47
2022-08-24T03:38:26.578Z,99440.34
2022-08-24T03:40:53.132Z,99437.81
2022-08-24T03:43:38.441Z,99445.56
2022-08-24T03:46:08.003Z,99446.47
2022-08-24T03:48:35.529Z,99435.94
2022-08-24T03:51:02.191Z,99441.19
2022-08-24T03:53:28.953Z,99433.25
2022-08-24T03:55:55.413Z,99446.94
2022-08-24T03:58:22.089Z,99443.75
2022-08-24T04:00:49.134Z,99441.22
2022-08-24T04:03:16.267Z,99445.66
2022-08-24T04:05:42.754Z,99440.91
2022-08-24T04:08:10.865Z,99436.22
2022-08-24T04:10:38.269Z,99445.34
2022-08-24T04:13:06.155Z,99451.09
2022-08-24T04:15:32.862Z,99442.66
2022-08-24T04:17:59.457Z,99445.34
2022-08-24T04:20:26.275Z,99442.31
2022-08-24T04:22:53.568Z,99439.13
2022-08-24T04:25:24.761Z,99442.88
2022-08-24T04:27:52.148Z,99445.19
2022-08-24T04:30:18.768Z,99444.88
2022-08-24T04:32:47.256Z,99443.69
2022-08-24T04:35:13.844Z,99443.03
2022-08-24T04:37:40.525Z,99448.09
2022-08-24T04:40:08.849Z,99453.53
2022-08-24T04:42:37.325Z,99449.13
2022-08-24T04:45:04.359Z,99458.22
2022-08-24T04:47:33.043Z,99455.53
2022-08-24T04:50:00.186Z,99450.81
2022-08-24T04:52:26.873Z,99458.41
2022-08-24T04:54:53.506Z,99455.69
2022-08-24T04:57:20.063Z,99463.63
2022-08-24T04:59:46.814Z,99463.81
2022-08-24T05:02:13.563Z,99468.38
2022-08-24T05:04:40.099Z,99470.09
2022-08-24T05:07:06.730Z,99469.06
2022-08-24T05:09:33.272Z,99469.75
2022-08-24T05:12:01.610Z,99469.03
2022-08-24T05:14:29.258Z,99466.66
2022-08-24T05:16:56.590Z,99439.84
2022-08-24T05:19:23.710Z,99432.69
2022-08-24T05:21:50.644Z,99430.72
2022-08-24T05:24:18.250Z,99435.09
2022-08-24T05:26:45.500Z,99431.34
2022-08-24T05:29:12.550Z,99431.19
2022-08-24T05:31:43.811Z,99443.06
2022-08-24T05:34:10.785Z,99445.41
2022-08-24T05:36:39.393Z,99450.66
2022-08-24T05:39:11.492Z,99453.56
2022-08-24T05:41:43.993Z,99454.75
2022-08-24T05:44:14.205Z,99456.28
2022-08-24T05:46:41.213Z,99465.56
2022-08-24T05:49:08.203Z,99475.75
2022-08-24T05:51:35.114Z,99485.66
2022-08-24T05:54:04.951Z,99478.34
2022-08-24T05:56:32.213Z,99480.72
2022-08-24T05:58:59.215Z,99486.78
2022-08-24T06:01:27.186Z,99485.25
2022-08-24T06:03:56.531Z,99483.22
2022-08-24T06:06:23.981Z,99483.69
2022-08-24T06:08:52.633Z,99484.66
2022-08-24T06:11:30.176Z,99480.16
2022-08-24T06:14:07.217Z,99479.44
2022-08-24T06:16:40.107Z,99483.09
2022-08-24T06:19:08.322Z,99486.75
2022-08-24T06:21:35.027Z,99479.91
2022-08-24T06:24:01.988Z,99479.00
2022-08-24T06:26:50.071Z,99487.34
2022-08-24T06:29:18.421Z,99481.44
2022-08-24T06:31:47.005Z,99484.16
2022-08-24T06:34:15.416Z,99479.41
2022-08-24T06:36:42.035Z,99476.56
2022-08-24T06:39:10.093Z,99484.50
2022-08-24T06:41:38.705Z,99481.69
2022-08-24T06:44:06.670Z,99476.59
2022-08-24T06:46:36.233Z,99479.66
2022-08-24T06:49:02.850Z,99482.91
2022-08-24T06:51:29.627Z,99486.97
2022-08-24T06:53:56.161Z,99488.22
2022-08-24T06:56:23.053Z,99485.13
2022-08-24T06:58:49.789Z,99486.22
2022-08-24T07:01:20.040Z,99482.56
2022-08-24T07:03:47.058Z,99482.06
2022-08-24T07:06:14.900Z,99474.69
2022-08-24T07:08:42.701Z,99478.53
2022-08-24T07:11:14.354Z,99481.81
2022-08-24T07:13:41.861Z,99485.44
2022-08-24T07:16:10.046Z,99485.50
2022-08-24T07:18:37.671Z,99489.75
2022-08-24T07:21:09.410Z,99488.78
2022-08-24T07:23:42.178Z,99485.88
2022-08-24T07:26:21.294Z,99488.66
2022-08-24T07:29:01.182Z,99491.19
2022-08-24T07:31:30.069Z,99488.25
2022-08-24T07:34:00.259Z,99492.84
2022-08-24T07:36:28.508Z,99492.44
2022-08-24T07:38:55.165Z,99483.78
2022-08-24T07:41:51.597Z,99480.22
2022-08-24T07:44:12.530Z,99490.88
2022-08-24T07:46:40.953Z,99478.06
2022-08-24T07:49:21.515Z,99482.19
2022-08-24T07:51:55.010Z,99481.47
2022-08-24T07:54:21.623Z,99482.25
2022-08-24T07:56:50.331Z,99484.09
2022-08-24T07:59:17.524Z,99492.19
2022-08-24T08:01:44.298Z,99490.59
2022-08-24T08:04:11.182Z,99484.16
2022-08-24T08:06:37.903Z,99486.66
2022-08-24T08:09:05.561Z,99498.00
2022-08-24T08:11:32.555Z,99499.78
2022-08-24T08:13:59.600Z,99504.50
2022-08-24T08:16:26.406Z,99502.28
2022-08-24T08:19:09.212Z,99512.75
2022-08-24T08:22:03.309Z,99503.31
2022-08-24T08:24:29.938Z,99501.34
2022-08-24T08:26:57.880Z,99505.50
2022-08-24T08:29:25.271Z,99510.41
2022-08-24T08:31:52.496Z,99504.63
2022-08-24T08:34:19.939Z,99498.63
2022-08-24T08:36:47.839Z,99490.97
2022-08-24T08:39:17.294Z,99499.97
2022-08-24T08:42:05.754Z,99500.34
2022-08-24T08:44:44.578Z,99499.88
2022-08-24T08:47:22.507Z,99498.19
2022-08-24T08:50:26.420Z,99496.41
2022-08-24T08:53:11.407Z,99500.66
2022-08-24T08:56:15.591Z,99501.16
2022-08-24T08:59:13.058Z,99499.00
2022-08-24T09:02:07.433Z,99498.59
2022-08-24T09:05:01.125Z,99502.00
2022-08-24T09:08:06.954Z,99497.91
2022-08-24T09:10:49.021Z,99496.00
2022-08-24T09:13:46.293Z,99500.31
2022-08-24T09:16:22.978Z,99494.44
2022-08-24T09:19:11.687Z,99490.59
2022-08-24T09:22:09.456Z,99481.53
2022-08-24T09:24:47.296Z,99486.16
2022-08-24T09:27:27.127Z,99483.28
2022-08-24T09:30:18.213Z,99479.66
2022-08-24T09:33:10.322Z,99479.56
2022-08-24T09:36:13.947Z,99471.38
2022-08-24T09:38:58.863Z,99471.66
2022-08-24T09:41:51.242Z,99467.91
2022-08-24T09:44:36.585Z,99472.50
2022-08-24T09:47:03.205Z,99478.19
2022-08-24T09:49:54.640Z,99471.38
2022-08-24T09:52:59.500Z,99461.59
2022-08-24T09:55:47.372Z,99468.56
2022-08-24T09:58:44.867Z,99463.09
2022-08-24T10:01:41.749Z,99463.59
2022-08-24T10:04:18.187Z,99466.91
2022-08-24T10:07:02.367Z,99454.91
2022-08-24T10:09:56.820Z,99452.72
2022-08-24T10:12:56.228Z,99447.84
2022-08-24T10:15:32.309Z,99444.44
2022-08-24T10:18:13.056Z,99448.81
2022-08-24T10:21:08.982Z,99443.88
2022-08-24T10:23:50.660Z,99446.09
2022-08-24T10:26:45.278Z,99439.88
2022-08-24T10:29:31.858Z,99438.03
2022-08-24T10:32:14.419Z,99437.59
2022-08-24T10:34:56.766Z,99438.25
2022-08-24T10:37:42.333Z,99433.38
2022-08-24T10:40:31.747Z,99420.19
2022-08-24T10:43:35.525Z,99420.25
2022-08-24T10:46:20.489Z,99421.94
2022-08-24T10:48:46.883Z,99414.28
2022-08-24T10:51:29.233Z,99403.78
2022-08-24T10:53:56.933Z,99407.69
2022-08-24T10:56:50.100Z,99406.81
2022-08-24T10:59:31.762Z,99405.47
2022-08-24T11:02:06.681Z,99410.75
2022-08-24T11:04:39.576Z,99406.53
2022-08-24T11:07:17.956Z,99399.31
2022-08-24T11:09:44.412Z,99402.09
2022-08-24T11:12:27.168Z,99402.63
2022-08-24T11:14:56.851Z,99404.59
2022-08-24T11:17:29.980Z,99400.97
2022-08-24T11:19:59.046Z,99391.56
2022-08-24T11:22:28.807Z,99399.84
2022-08-24T11:24:59.955Z,99394.31
2022-08-24T11:27:39.435Z,99400.88
2022-08-24T11:30:31.128Z,99387.06
2022-08-24T11:33:06.836Z,99388.13
2022-08-24T11:35:33.391Z,99383.47
2022-08-24T11:38:06.091Z,99376.38
2022-08-24T11:40:39.009Z,99376.03
2022-08-24T11:43:27.233Z,99375.78
2022-08-24T11:46:09.842Z,99376.88
2022-08-24T11:49:13.585Z,99378.47
2022-08-24T11:52:01.744Z,99370.63
2022-08-24T11:54:40.216Z,99368.53
2022-08-24T11:57:15.891Z,99372.41
2022-08-24T11:59:55.775Z,99370.97
2022-08-24T12:02:32.385Z,99368.72
2022-08-24T12:05:26.857Z,99362.91
2022-08-24T12:08:02.843Z,99366.25
2022-08-24T12:10:56.797Z,99365.31
2022-08-24T12:13:52.854Z,99369.41
2022-08-24T12:16:32.808Z,99369.06
2022-08-24T12:19:19.996Z,99364.84
2022-08-24T12:21:51.323Z,99374.38
2022-08-24T12:24:43.064Z,99370.47
2022-08-24T12:27:14.527Z,99362.06
2022-08-24T12:29:45.855Z,99363.66
2022-08-24T12:32:18.923Z,99358.28
2022-08-24T12:34:58.519Z,99355.09
2022-08-24T12:37:34.873Z,99344.94
2022-08-24T12:40:20.504Z,99342.63
2022-08-24T12:43:23.258Z,99355.25
2022-08-24T12:45:51.265Z,99339.13
2022-08-24T12:48:22.818Z,99355.44
2022-08-24T12:50:52.119Z,99348.06
2022-08-24T12:53:30.312Z,99344.47
2022-08-24T12:56:02.716Z,99348.28
2022-08-24T12:58:51.804Z,99353.66
2022-08-24T13:01:26.978Z,99345.44
2022-08-24T13:04:37.986Z,99350.19
2022-08-24T13:07:09.909Z,99346.34
2022-08-24T13:09:59.853Z,99343.75
2022-08-24T13:12:45.011Z,99337.56
2022-08-24T13:15:23.787Z,99328.38
2022-08-24T13:17:54.439Z,99325.75
2022-08-24T13:20:47.695Z,99327.06
2022-08-24T13:23:14.417Z,99325.59
2022-08-24T13:25:47.052Z,99321.19
2022-08-24T13:28:22.696Z,99319.38
2022-08-24T13:31:13.841Z,99320.44
2022-08-24T13:33:40.503Z,99319.59
2022-08-24T13:36:31.369Z,99318.47
2022-08-24T13:39:14.956Z,99311.78
2022-08-24T13:41:49.509Z,99308.78
2022-08-24T13:44:26.982Z,99309.41
2022-08-24T13:46:56.568Z,99306.19
2022-08-24T13:49:36.004Z,99308.00
2022-08-24T13:52:30.912Z,99296.31
2022-08-24T13:55:06.865Z,99295.25
2022-08-24T13:58:06.484Z,99291.44
2022-08-24T14:00:44.061Z,99298.88
2022-08-24T14:03:26.627Z,99291.22
2022-08-24T14:06:13.558Z,99295.78
2022-08-24T14:09:05.535Z,99298.28
2022-08-24T14:11:58.617Z,99300.75
2022-08-24T14:14:51.381Z,99299.16
2022-08-24T14:18:03.522Z,99290.72
2022-08-24T14:20:51.032Z,99291.09
2022-08-24T14:23:17.459Z,99284.72
2022-08-24T14:25:45.345Z,99283.50
2022-08-24T14:28:43.680Z,99279.97
2022-08-24T14:31:13.258Z,99284.50
2022-08-24T14:33:54.600Z,99285.34
2022-08-24T14:36:31.675Z,99273.06
2022-08-24T14:39:05.561Z,99281.72
2022-08-24T14:41:46.639Z,99278.94
2022-08-24T14:44:30.044Z,99271.84
2022-08-24T14:47:30.564Z,99277.09
2022-08-24T14:50:27.710Z,99271.09
2022-08-24T14:53:01.330Z,99268.41
2022-08-24T14:56:07.522Z,99266.56
2022-08-24T14:59:06.621Z,99272.88
2022-08-24T15:01:33.196Z,99267.19
2022-08-24T15:04:37.258Z,99264.94
2022-08-24T15:07:33.178Z,99268.13
2022-08-24T15:10:01.133Z,99262.31
2022-08-24T15:12:37.413Z,99262.53
2022-08-24T15:15:10.008Z,99272.72
2022-08-24T15:17:49.400Z,99275.22
2022-08-24T15:20:28.460Z,99270.41
2022-08-24T15:22:57.973Z,99278.38
2022-08-24T15:25:36.930Z,99270.41
2022-08-24T15:28:13.847Z,99269.69
2022-08-24T15:30:52.643Z,99268.84
2022-08-24T15:33:20.009Z,99264.16
2022-08-24T15:36:03.271Z,99261.34
2022-08-24T15:38:30.081Z,99256.00
2022-08-24T15:41:22.714Z,99250.34
2022-08-24T15:43:49.181Z,99262.88
2022-08-24T15:46:21.435Z,99250.50
2022-08-24T15:48:50.529Z,99255.44
2022-08-24T15:51:40.611Z,99252.97
2022-08-24T15:54:14.820Z,99245.22
2022-08-24T15:56:47.938Z,99256.81
2022-08-24T15:59:32.081Z,99251.25
2022-08-24T16:02:26.597Z,99248.78
2022-08-24T16:05:21.494Z,99250.72
2022-08-24T16:08:06.679Z,99249.63
2022-08-24T16:10:39.020Z,99248.06
2022-08-24T16:13:17.757Z,99257.56
2022-08-24T16:15:57.096Z,99257.78
2022-08-24T16:18:27.388Z,99253.31
2022-08-24T16:20:58.600Z,99255.94
2022-08-24T16:23:29.213Z,99248.91
2022-08-24T16:26:33.449Z,99243.47
2022-08-24T16:29:00.608Z,99251.19
2022-08-24T16:31:49.738Z,99246.09
2022-08-24T16:34:22.829Z,99246.09
2022-08-24T16:36:49.768Z,99241.50
2022-08-24T16:39:16.397Z,99244.88
2022-08-24T16:41:43.117Z,99246.53
2022-08-24T16:44:10.887Z,99247.66
2022-08-24T16:46:38.859Z,99248.16
2022-08-24T16:49:06.216Z,99246.53
2022-08-24T16:51:39.168Z,99247.53
2022-08-24T16:54:12.940Z,99244.00
2022-08-24T16:56:39.752Z,99247.25
2022-08-24T16:59:06.854Z,99242.31
2022-08-24T17:01:33.423Z,99245.22
2022-08-24T17:04:00.084Z,99243.91
2022-08-24T17:06:26.631Z,99242.03
2022-08-24T17:08:53.564Z,99243.25
2022-08-24T17:11:20.085Z,99247.19
2022-08-24T17:13:50.260Z,99246.53
2022-08-24T17:16:18.672Z,99248.19
2022-08-24T17:18:45.595Z,99244.19
2022-08-24T17:21:12.165Z,99248.16
2022-08-24T17:23:41.289Z,99249.00
2022-08-24T17:26:20.474Z,99252.13
2022-08-24T17:28:49.386Z,99250.00
2022-08-24T17:31:16.093Z,99253.66
2022-08-24T17:33:42.703Z,99256.75
2022-08-24T17:36:13.191Z,99258.50
2022-08-24T17:38:54.486Z,99254.94
2022-08-24T17:41:23.567Z,99263.56
2022-08-24T17:43:50.449Z,99266.38
2022-08-24T17:46:18.501Z,99264.16
2022-08-24T17:48:47.194Z,99269.69
2022-08-24T17:51:14.290Z,99267.16
2022-08-24T17:53:41.250Z,99275.09
2022-08-24T17:56:08.765Z,99279.16
2022-08-24T17:58:55.807Z,99282.59
2022-08-24T18:01:22.840Z,99292.41
2022-08-24T18:03:50.608Z,99292.81
2022-08-24T18:06:19.660Z,99296.50
2022-08-24T18:08:47.547Z,99292.97
2022-08-24T18:11:14.565Z,99306.06
2022-08-24T18:13:42.058Z,99302.56
2022-08-24T18:16:17.308Z,99298.50
2022-08-24T18:18:44.013Z,99300.75
2022-08-24T18:21:10.629Z,99301.63
2022-08-24T18:23:43.389Z,99302.75
2022-08-24T18:26:11.110Z,99309.56
2022-08-24T18:28:38.047Z,99309.25
2022-08-24T18:31:10.221Z,99319.16
2022-08-24T18:33:36.808Z,99308.38
2022-08-24T18:36:03.746Z,99310.13
2022-08-24T18:38:30.633Z,99318.03
2022-08-24T18:41:00.241Z,99323.31
2022-08-24T18:43:28.148Z,99320.94
2022-08-24T18:45:54.984Z,99319.56
2022-08-24T18:48:22.723Z,99332.53
2022-08-24T18:50:50.691Z,99327.88
2022-08-24T18:53:17.620Z,99329.09
2022-08-24T18:55:46.178Z,99332.91
2022-08-24T18:58:12.625Z,99324.91
2022-08-24T19:00:40.784Z,99334.84
2022-08-24T19:03:09.450Z,99331.50
2022-08-24T19:05:36.193Z,99335.69
2022-08-24T19:08:04.112Z,99328.97
2022-08-24T19:10:36.345Z,99337.19
2022-08-24T19:13:09.577Z,99337.88
2022-08-24T19:15:39.691Z,99339.75
2022-08-24T19:18:09.590Z,99336.97
2022-08-24T19:20:36.649Z,99349.56
2022-08-24T19:23:10.582Z,99340.47
2022-08-24T19:25:39.945Z,99343.13
2022-08-24T19:28:07.184Z,99343.66
2022-08-24T19:30:33.923Z,99343.75
2022-08-24T19:33:01.598Z,99353.56
2022-08-24T19:35:31.741Z,99347.34
2022-08-24T19:37:58.404Z,99350.00
2022-08-24T19:40:25.002Z,99345.03
2022-08-24T19:42:53.586Z,99348.44
2022-08-24T19:45:44.168Z,99349.78
2022-08-24T19:48:12.093Z,99348.59
2022-08-24T19:50:39.848Z,99344.59
2022-08-24T19:53:06.686Z,99344.66
2022-08-24T19:55:33.702Z,99348.94
2022-08-24T19:58:03.259Z,99351.72
2022-08-24T20:00:41.635Z,99360.84
2022-08-24T20:03:14.901Z,99357.78
2022-08-24T20:05:41.811Z,99357.00
2022-08-24T20:08:08.902Z,99356.63
2022-08-24T20:10:35.634Z,99366.13
2022-08-24T20:13:02.145Z,99363.81
2022-08-24T20:15:29.176Z,99361.34
2022-08-24T20:17:58.047Z,99369.16
2022-08-24T20:20:27.197Z,99370.25
2022-08-24T20:22:54.342Z,99362.69
2022-08-24T20:25:21.109Z,99375.97
2022-08-24T20:27:48.763Z,99369.28
2022-08-24T20:30:17.782Z,99371.19
2022-08-24T20:32:44.660Z,99376.03
2022-08-24T20:35:15.059Z,99373.13
2022-08-24T20:37:42.232Z,99377.13
2022-08-24T20:40:12.788Z,99376.28
2022-08-24T20:42:41.894Z,99366.66
2022-08-24T20:45:13.871Z,99382.63
2022-08-24T20:47:47.472Z,99377.19
2022-08-24T20:50:16.792Z,99374.63
2022-08-24T20:52:43.488Z,99374.81
2022-08-24T20:55:11.496Z,99371.91
2022-08-24T20:57:38.607Z,99367.28
2022-08-24T21:00:10.216Z,99373.56
2022-08-24T21:02:36.788Z,99377.19
2022-08-24T21:05:03.813Z,99384.75
2022-08-24T21:07:30.645Z,99384.53
2022-08-24T21:09:57.500Z,99381.50
2022-08-24T21:12:27.475Z,99380.25
2022-08-24T21:14:57.257Z,99373.25
2022-08-24T21:17:24.431Z,99382.28
2022-08-24T21:19:51.582Z,99374.94
2022-08-24T21:22:18.173Z,99377.38
2022-08-24T21:24:44.686Z,99375.03
2022-08-24T21:27:11.332Z,99378.84
2022-08-24T21:29:37.869Z,99375.25
2022-08-24T21:32:23.069Z,99372.03
2022-08-24T21:34:49.724Z,99379.97
2022-08-24T21:37:18.640Z,99382.16
2022-08-24T21:39:47.106Z,99378.38
2022-08-24T21:42:17.005Z,99381.38
2022-08-24T21:44:46.845Z,99381.22
2022-08-24T21:47:13.449Z,99374.53
2022-08-24T21:49:41.234Z,99386.56
2022-08-24T21:52:07.743Z,99383.84
2022-08-24T21:54:34.511Z,99390.66
2022-08-24T21:57:01.095Z,99384.06
2022-08-24T21:59:27.747Z,99382.47
2022-08-24T22:01:54.349Z,99392.22
2022-08-24T22:04:20.986Z,99390.75
2022-08-24T22:06:47.485Z,99389.09
2022-08-24T22:09:14.400Z,99393.75
2022-08-24T22:11:41.845Z,99399.25
2022-08-24T22:14:08.810Z,99396.97
2022-08-24T22:16:37.060Z,99401.53
2022-08-24T22:19:04.284Z,99398.19
2022-08-24T22:21:31.490Z,99387.53
2022-08-24T22:24:02.971Z,99388.44
2022-08-24T22:26:30.349Z,99390.09
2022-08-24T22:28:57.592Z,99387.19
2022-08-24T22:31:32.637Z,99390.31
2022-08-24T22:34:04.645Z,99393.91
2022-08-24T22:36:31.343Z,99391.00
2022-08-24T22:38:59.175Z,99388.69
2022-08-24T22:41:27.561Z,99389.75
2022-08-24T22:44:14.608Z,99393.16
2022-08-24T22:46:41.381Z,99390.91
2022-08-24T22:49:09.665Z,99395.22
2022-08-24T22:51:36.448Z,99390.38
2022-08-24T22:54:03.807Z,99389.19
2022-08-24T22:56:35.234Z,99389.22
2022-08-24T22:59:02.809Z,99384.19
2022-08-24T23:01:40.268Z,99388.63
2022-08-24T23:04:10.127Z,99379.38
2022-08-24T23:06:37.061Z,99385.72
2022-08-24T23:09:07.917Z,99389.44
2022-08-24T23:11:34.699Z,99381.94
2022-08-24T23:14:03.415Z,99387.44
2022-08-24T23:16:32.601Z,99383.88
2022-08-24T23:19:18.199Z,99383.88
2022-08-24T23:21:44.804Z,99381.34
2022-08-24T23:24:11.990Z,99385.34
2022-08-24T23:26:40.128Z,99386.44
2022-08-24T23:29:09.607Z,99379.94
2022-08-24T23:31:36.615Z,99378.94
2022-08-24T23:34:03.563Z,99380.09
2022-08-24T23:36:31.085Z,99377.59
2022-08-24T23:38:59.431Z,99377.00
2022-08-24T23:41:32.546Z,99381.38
2022-08-24T23:44:01.043Z,99373.78
2022-08-24T23:46:28.146Z,99376.09
2022-08-24T23:48:56.721Z,99371.72
2022-08-24T23:51:26.468Z,99366.69
2022-08-24T23:53:53.297Z,99364.59
2022-08-24T23:56:32.304Z,99369.47
2022-08-24T23:59:01.850Z,99362.97
